sensor_id;sensor_type;location;lat;lon;timestamp;temperature;humidity
59148;DHT22;44930;52.878;6.168;2023-12-20T00:01:23;6.70;99.90
59148;DHT22;44930;52.878;6.168;2023-12-20T00:03:49;6.70;99.90
59148;DHT22;44930;52.878;6.168;2023-12-20T00:06:14;6.60;99.90
59148;DHT22;44930;52.878;6.168;2023-12-20T00:08:40;6.50;99.90
59148;DHT22;44930;52.878;6.168;2023-12-20T00:11:05;6.50;99.90
59148;DHT22;44930;52.878;6.168;2023-12-20T00:20:49;6.40;99.90
59148;DHT22;44930;52.878;6.168;2023-12-20T00:23:15;6.30;99.90
59148;DHT22;44930;52.878;6.168;2023-12-20T00:25:40;6.30;99.90
59148;DHT22;44930;52.878;6.168;2023-12-20T00:37:50;6.20;99.90
59148;DHT22;44930;52.878;6.168;2023-12-20T00:42:42;6.30;99.90
59148;DHT22;44930;52.878;6.168;2023-12-20T00:47:34;6.20;99.90
59148;DHT22;44930;52.878;6.168;2023-12-20T00:50:00;6.20;99.90
59148;DHT22;44930;52.878;6.168;2023-12-20T00:52:25;6.20;99.90
59148;DHT22;44930;52.878;6.168;2023-12-20T00:54:51;6.10;99.90
59148;DHT22;44930;52.878;6.168;2023-12-20T00:57:17;6.20;99.90
59148;DHT22;44930;52.878;6.168;2023-12-20T00:59:43;6.00;99.90
59148;DHT22;44930;52.878;6.168;2023-12-20T01:02:08;6.00;99.90
59148;DHT22;44930;52.878;6.168;2023-12-20T01:04:35;6.00;99.90
59148;DHT22;44930;52.878;6.168;2023-12-20T01:09:26;6.10;99.90
59148;DHT22;44930;52.878;6.168;2023-12-20T01:14:21;6.00;99.90
59148;DHT22;44930;52.878;6.168;2023-12-20T01:16:47;6.20;99.90
59148;DHT22;44930;52.878;6.168;2023-12-20T01:21:40;6.10;99.90
59148;DHT22;44930;52.878;6.168;2023-12-20T01:33:50;6.10;99.90
59148;DHT22;44930;52.878;6.168;2023-12-20T01:36:15;6.20;99.90
59148;DHT22;44930;52.878;6.168;2023-12-20T01:38:41;6.30;99.90
59148;DHT22;44930;52.878;6.168;2023-12-20T01:41:07;6.60;99.90
59148;DHT22;44930;52.878;6.168;2023-12-20T01:45:58;6.70;99.90
59148;DHT22;44930;52.878;6.168;2023-12-20T01:48:25;6.70;99.90
59148;DHT22;44930;52.878;6.168;2023-12-20T01:53:19;6.80;99.90
59148;DHT22;44930;52.878;6.168;2023-12-20T01:55:45;6.60;99.90
59148;DHT22;44930;52.878;6.168;2023-12-20T01:58:14;6.50;99.90
59148;DHT22;44930;52.878;6.168;2023-12-20T02:00:40;6.40;99.90
59148;DHT22;44930;52.878;6.168;2023-12-20T02:03:06;6.40;99.90
59148;DHT22;44930;52.878;6.168;2023-12-20T02:05:33;6.30;99.90
59148;DHT22;44930;52.878;6.168;2023-12-20T02:07:59;6.40;99.90
59148;DHT22;44930;52.878;6.168;2023-12-20T02:10:25;6.60;99.90
59148;DHT22;44930;52.878;6.168;2023-12-20T02:12:51;6.60;99.90
59148;DHT22;44930;52.878;6.168;2023-12-20T02:20:09;6.60;99.90
59148;DHT22;44930;52.878;6.168;2023-12-20T02:22:35;6.70;99.90
59148;DHT22;44930;52.878;6.168;2023-12-20T02:32:20;7.00;99.90
59148;DHT22;44930;52.878;6.168;2023-12-20T02:34:47;6.90;99.90
59148;DHT22;44930;52.878;6.168;2023-12-20T02:37:13;6.80;99.90
59148;DHT22;44930;52.878;6.168;2023-12-20T02:42:05;6.70;99.90
59148;DHT22;44930;52.878;6.168;2023-12-20T02:44:31;6.90;99.90
59148;DHT22;44930;52.878;6.168;2023-12-20T02:51:49;6.70;99.90
59148;DHT22;44930;52.878;6.168;2023-12-20T02:59:06;6.80;99.90
59148;DHT22;44930;52.878;6.168;2023-12-20T03:01:34;6.80;99.90
59148;DHT22;44930;52.878;6.168;2023-12-20T03:04:00;6.90;99.90
59148;DHT22;44930;52.878;6.168;2023-12-20T03:06:25;6.90;99.90
59148;DHT22;44930;52.878;6.168;2023-12-20T03:08:51;7.00;99.90
59148;DHT22;44930;52.878;6.168;2023-12-20T03:11:17;7.00;99.90
59148;DHT22;44930;52.878;6.168;2023-12-20T03:13:43;7.10;99.90
59148;DHT22;44930;52.878;6.168;2023-12-20T03:16:12;7.00;99.90
59148;DHT22;44930;52.878;6.168;2023-12-20T03:18:38;6.80;99.90
59148;DHT22;44930;52.878;6.168;2023-12-20T03:26:02;7.10;99.90
59148;DHT22;44930;52.878;6.168;2023-12-20T03:28:29;7.00;99.90
59148;DHT22;44930;52.878;6.168;2023-12-20T03:30:54;7.00;99.90
59148;DHT22;44930;52.878;6.168;2023-12-20T03:33:20;7.10;99.90
59148;DHT22;44930;52.878;6.168;2023-12-20T03:35:46;7.00;99.90
59148;DHT22;44930;52.878;6.168;2023-12-20T03:38:11;7.00;99.90
59148;DHT22;44930;52.878;6.168;2023-12-20T03:43:03;7.00;99.90
59148;DHT22;44930;52.878;6.168;2023-12-20T03:50:26;7.20;99.90
59148;DHT22;44930;52.878;6.168;2023-12-20T03:52:52;7.20;99.90
59148;DHT22;44930;52.878;6.168;2023-12-20T03:55:18;7.20;99.90
59148;DHT22;44930;52.878;6.168;2023-12-20T03:57:43;7.30;99.90
59148;DHT22;44930;52.878;6.168;2023-12-20T04:00:10;7.30;99.90
59148;DHT22;44930;52.878;6.168;2023-12-20T04:09:57;7.20;99.90
59148;DHT22;44930;52.878;6.168;2023-12-20T04:12:23;7.20;99.90
59148;DHT22;44930;52.878;6.168;2023-12-20T04:14:48;7.20;99.90
59148;DHT22;44930;52.878;6.168;2023-12-20T04:17:15;7.10;99.90
59148;DHT22;44930;52.878;6.168;2023-12-20T04:22:08;7.00;99.90
59148;DHT22;44930;52.878;6.168;2023-12-20T04:24:34;7.20;99.90
59148;DHT22;44930;52.878;6.168;2023-12-20T04:29:25;7.10;99.90
59148;DHT22;44930;52.878;6.168;2023-12-20T04:31:51;7.20;99.90
59148;DHT22;44930;52.878;6.168;2023-12-20T04:34:17;7.20;99.90
59148;DHT22;44930;52.878;6.168;2023-12-20T04:39:10;7.20;99.90
59148;DHT22;44930;52.878;6.168;2023-12-20T04:53:46;7.50;99.90
59148;DHT22;44930;52.878;6.168;2023-12-20T04:56:11;7.50;99.90
59148;DHT22;44930;52.878;6.168;2023-12-20T05:01:05;7.60;99.90
59148;DHT22;44930;52.878;6.168;2023-12-20T05:05:56;7.70;99.90
59148;DHT22;44930;52.878;6.168;2023-12-20T05:08:22;7.60;99.90
59148;DHT22;44930;52.878;6.168;2023-12-20T05:10:48;7.70;99.90
59148;DHT22;44930;52.878;6.168;2023-12-20T05:13:13;7.60;99.90
59148;DHT22;44930;52.878;6.168;2023-12-20T05:15:39;7.70;99.90
59148;DHT22;44930;52.878;6.168;2023-12-20T05:20:31;7.70;99.90
59148;DHT22;44930;52.878;6.168;2023-12-20T05:22:56;7.90;99.90
59148;DHT22;44930;52.878;6.168;2023-12-20T05:30:14;7.90;99.90
59148;DHT22;44930;52.878;6.168;2023-12-20T05:32:40;7.90;99.90
59148;DHT22;44930;52.878;6.168;2023-12-20T05:35:05;7.60;99.90
59148;DHT22;44930;52.878;6.168;2023-12-20T05:37:31;7.90;99.90
59148;DHT22;44930;52.878;6.168;2023-12-20T05:39:57;7.80;99.90
59148;DHT22;44930;52.878;6.168;2023-12-20T05:42:22;7.90;99.90
59148;DHT22;44930;52.878;6.168;2023-12-20T05:44:48;7.90;99.90
59148;DHT22;44930;52.878;6.168;2023-12-20T05:52:05;7.90;99.90
59148;DHT22;44930;52.878;6.168;2023-12-20T05:59:23;8.00;99.90
59148;DHT22;44930;52.878;6.168;2023-12-20T06:04:15;8.00;99.90
59148;DHT22;44930;52.878;6.168;2023-12-20T06:09:10;7.90;99.90
59148;DHT22;44930;52.878;6.168;2023-12-20T06:11:36;8.10;99.90
59148;DHT22;44930;52.878;6.168;2023-12-20T06:14:01;8.10;99.90
59148;DHT22;44930;52.878;6.168;2023-12-20T06:18:53;8.00;99.90
59148;DHT22;44930;52.878;6.168;2023-12-20T06:21:19;8.00;99.90
59148;DHT22;44930;52.878;6.168;2023-12-20T06:23:44;8.10;99.90
59148;DHT22;44930;52.878;6.168;2023-12-20T06:26:10;8.10;99.90
59148;DHT22;44930;52.878;6.168;2023-12-20T06:28:36;8.10;99.90
59148;DHT22;44930;52.878;6.168;2023-12-20T06:35:56;8.10;99.90
59148;DHT22;44930;52.878;6.168;2023-12-20T06:38:22;8.10;99.90
59148;DHT22;44930;52.878;6.168;2023-12-20T06:40:47;8.00;99.90
59148;DHT22;44930;52.878;6.168;2023-12-20T06:43:13;8.20;99.90
59148;DHT22;44930;52.878;6.168;2023-12-20T06:45:39;8.10;99.90
59148;DHT22;44930;52.878;6.168;2023-12-20T06:52:57;8.00;99.90
59148;DHT22;44930;52.878;6.168;2023-12-20T06:57:49;8.00;99.90
59148;DHT22;44930;52.878;6.168;2023-12-20T07:00:15;8.10;99.90
59148;DHT22;44930;52.878;6.168;2023-12-20T07:02:40;8.10;99.90
59148;DHT22;44930;52.878;6.168;2023-12-20T07:05:06;8.20;99.90
59148;DHT22;44930;52.878;6.168;2023-12-20T07:07:32;8.20;99.90
59148;DHT22;44930;52.878;6.168;2023-12-20T07:09:58;8.20;99.90
59148;DHT22;44930;52.878;6.168;2023-12-20T07:12:23;8.20;99.90
59148;DHT22;44930;52.878;6.168;2023-12-20T07:17:15;8.00;99.90
59148;DHT22;44930;52.878;6.168;2023-12-20T07:19:41;8.10;99.90
59148;DHT22;44930;52.878;6.168;2023-12-20T07:22:07;8.00;99.90
59148;DHT22;44930;52.878;6.168;2023-12-20T07:24:34;8.30;99.90
59148;DHT22;44930;52.878;6.168;2023-12-20T07:27:02;8.30;99.90
59148;DHT22;44930;52.878;6.168;2023-12-20T07:29:28;8.40;99.90
59148;DHT22;44930;52.878;6.168;2023-12-20T07:31:54;8.30;99.90
59148;DHT22;44930;52.878;6.168;2023-12-20T07:36:48;8.30;99.90
59148;DHT22;44930;52.878;6.168;2023-12-20T07:39:14;8.50;99.90
59148;DHT22;44930;52.878;6.168;2023-12-20T07:46:33;8.40;99.90
59148;DHT22;44930;52.878;6.168;2023-12-20T07:48:58;8.40;99.90
59148;DHT22;44930;52.878;6.168;2023-12-20T07:51:24;8.40;99.90
59148;DHT22;44930;52.878;6.168;2023-12-20T07:53:51;8.40;99.90
59148;DHT22;44930;52.878;6.168;2023-12-20T08:03:36;8.40;99.90
59148;DHT22;44930;52.878;6.168;2023-12-20T08:06:02;8.10;99.90
59148;DHT22;44930;52.878;6.168;2023-12-20T08:13:20;8.60;99.90
59148;DHT22;44930;52.878;6.168;2023-12-20T08:15:51;8.50;99.90
59148;DHT22;44930;52.878;6.168;2023-12-20T08:18:17;8.60;99.90
59148;DHT22;44930;52.878;6.168;2023-12-20T08:20:42;8.50;99.90
59148;DHT22;44930;52.878;6.168;2023-12-20T08:23:08;8.70;99.90
59148;DHT22;44930;52.878;6.168;2023-12-20T08:25:34;8.70;99.90
59148;DHT22;44930;52.878;6.168;2023-12-20T08:27:59;8.70;99.90
59148;DHT22;44930;52.878;6.168;2023-12-20T08:30:25;8.80;99.90
59148;DHT22;44930;52.878;6.168;2023-12-20T08:35:16;8.60;99.90
59148;DHT22;44930;52.878;6.168;2023-12-20T08:37:44;8.60;99.90
59148;DHT22;44930;52.878;6.168;2023-12-20T08:40:09;8.50;99.90
59148;DHT22;44930;52.878;6.168;2023-12-20T08:42:35;8.50;99.90
59148;DHT22;44930;52.878;6.168;2023-12-20T08:45:01;8.60;99.90
59148;DHT22;44930;52.878;6.168;2023-12-20T08:52:23;8.50;99.90
59148;DHT22;44930;52.878;6.168;2023-12-20T08:54:50;8.60;99.90
59148;DHT22;44930;52.878;6.168;2023-12-20T08:57:19;8.80;99.90
59148;DHT22;44930;52.878;6.168;2023-12-20T08:59:45;8.70;99.90
59148;DHT22;44930;52.878;6.168;2023-12-20T09:02:10;8.70;99.90
59148;DHT22;44930;52.878;6.168;2023-12-20T09:04:36;8.80;99.90
59148;DHT22;44930;52.878;6.168;2023-12-20T09:07:01;8.80;99.90
59148;DHT22;44930;52.878;6.168;2023-12-20T09:09:27;8.70;99.90
59148;DHT22;44930;52.878;6.168;2023-12-20T09:11:53;8.50;99.90
59148;DHT22;44930;52.878;6.168;2023-12-20T09:14:18;8.60;99.90
59148;DHT22;44930;52.878;6.168;2023-12-20T09:19:10;8.80;99.90
59148;DHT22;44930;52.878;6.168;2023-12-20T09:21:36;8.70;99.90
59148;DHT22;44930;52.878;6.168;2023-12-20T09:24:01;8.90;99.90
59148;DHT22;44930;52.878;6.168;2023-12-20T09:26:27;9.00;99.90
59148;DHT22;44930;52.878;6.168;2023-12-20T09:31:18;9.00;99.90
59148;DHT22;44930;52.878;6.168;2023-12-20T09:38:36;8.90;99.90
59148;DHT22;44930;52.878;6.168;2023-12-20T09:41:02;8.60;99.90
59148;DHT22;44930;52.878;6.168;2023-12-20T09:43:30;8.40;99.90
59148;DHT22;44930;52.878;6.168;2023-12-20T09:46:00;8.00;99.90
59148;DHT22;44930;52.878;6.168;2023-12-20T09:48:27;8.10;99.90
59148;DHT22;44930;52.878;6.168;2023-12-20T09:55:48;8.00;99.90
59148;DHT22;44930;52.878;6.168;2023-12-20T10:00:41;7.60;99.90
59148;DHT22;44930;52.878;6.168;2023-12-20T10:03:06;7.50;99.90
59148;DHT22;44930;52.878;6.168;2023-12-20T10:05:34;7.50;99.90
59148;DHT22;44930;52.878;6.168;2023-12-20T10:08:00;7.50;99.90
59148;DHT22;44930;52.878;6.168;2023-12-20T10:10:26;7.60;99.90
59148;DHT22;44930;52.878;6.168;2023-12-20T10:22:52;7.50;99.90
59148;DHT22;44930;52.878;6.168;2023-12-20T10:25:20;7.50;99.90
59148;DHT22;44930;52.878;6.168;2023-12-20T10:27:46;7.40;99.90
59148;DHT22;44930;52.878;6.168;2023-12-20T10:35:06;7.40;99.90
59148;DHT22;44930;52.878;6.168;2023-12-20T10:37:36;7.40;99.90
59148;DHT22;44930;52.878;6.168;2023-12-20T10:44:55;7.50;99.90
59148;DHT22;44930;52.878;6.168;2023-12-20T10:47:22;7.50;99.90
59148;DHT22;44930;52.878;6.168;2023-12-20T10:49:52;7.60;99.90
59148;DHT22;44930;52.878;6.168;2023-12-20T10:52:18;7.70;99.90
59148;DHT22;44930;52.878;6.168;2023-12-20T10:54:44;7.70;99.90
59148;DHT22;44930;52.878;6.168;2023-12-20T10:57:11;7.20;99.90
59148;DHT22;44930;52.878;6.168;2023-12-20T11:02:07;7.50;99.90
59148;DHT22;44930;52.878;6.168;2023-12-20T11:04:53;7.40;99.90
59148;DHT22;44930;52.878;6.168;2023-12-20T11:07:32;7.70;99.90
59148;DHT22;44930;52.878;6.168;2023-12-20T11:12:52;7.70;99.90
59148;DHT22;44930;52.878;6.168;2023-12-20T11:15:19;7.60;99.90
59148;DHT22;44930;52.878;6.168;2023-12-20T11:17:45;7.70;99.90
59148;DHT22;44930;52.878;6.168;2023-12-20T11:22:54;7.30;99.90
59148;DHT22;44930;52.878;6.168;2023-12-20T11:25:20;7.70;99.90
59148;DHT22;44930;52.878;6.168;2023-12-20T11:28:09;7.50;99.90
59148;DHT22;44930;52.878;6.168;2023-12-20T11:30:43;7.70;99.90
59148;DHT22;44930;52.878;6.168;2023-12-20T11:33:10;8.10;99.90
59148;DHT22;44930;52.878;6.168;2023-12-20T11:35:36;7.50;99.90
59148;DHT22;44930;52.878;6.168;2023-12-20T11:38:02;7.80;99.90
59148;DHT22;44930;52.878;6.168;2023-12-20T11:40:28;7.70;99.90
59148;DHT22;44930;52.878;6.168;2023-12-20T11:42:53;7.80;99.90
59148;DHT22;44930;52.878;6.168;2023-12-20T11:45:23;7.70;99.90
59148;DHT22;44930;52.878;6.168;2023-12-20T11:47:50;7.60;99.90
59148;DHT22;44930;52.878;6.168;2023-12-20T11:57:38;8.10;99.90
59148;DHT22;44930;52.878;6.168;2023-12-20T12:00:04;7.70;99.90
59148;DHT22;44930;52.878;6.168;2023-12-20T12:04:59;7.90;99.90
59148;DHT22;44930;52.878;6.168;2023-12-20T12:07:25;7.80;99.90
59148;DHT22;44930;52.878;6.168;2023-12-20T12:09:51;7.80;99.90
59148;DHT22;44930;52.878;6.168;2023-12-20T12:14:45;7.80;99.90
59148;DHT22;44930;52.878;6.168;2023-12-20T12:19:41;7.90;99.90
59148;DHT22;44930;52.878;6.168;2023-12-20T12:22:12;7.80;99.90
59148;DHT22;44930;52.878;6.168;2023-12-20T12:24:46;7.30;99.90
59148;DHT22;44930;52.878;6.168;2023-12-20T12:27:15;7.50;99.90
59148;DHT22;44930;52.878;6.168;2023-12-20T12:30:03;7.30;99.90
59148;DHT22;44930;52.878;6.168;2023-12-20T12:32:29;7.60;99.90
59148;DHT22;44930;52.878;6.168;2023-12-20T12:37:22;7.30;99.90
59148;DHT22;44930;52.878;6.168;2023-12-20T12:42:15;7.30;99.90
59148;DHT22;44930;52.878;6.168;2023-12-20T12:44:41;7.30;99.90
59148;DHT22;44930;52.878;6.168;2023-12-20T12:47:06;7.20;99.90
59148;DHT22;44930;52.878;6.168;2023-12-20T12:49:33;7.20;99.90
59148;DHT22;44930;52.878;6.168;2023-12-20T12:51:59;7.20;99.90
59148;DHT22;44930;52.878;6.168;2023-12-20T12:54:24;7.20;99.90
59148;DHT22;44930;52.878;6.168;2023-12-20T12:56:50;7.10;99.90
59148;DHT22;44930;52.878;6.168;2023-12-20T13:06:37;6.70;99.90
59148;DHT22;44930;52.878;6.168;2023-12-20T13:11:30;6.90;99.90
59148;DHT22;44930;52.878;6.168;2023-12-20T13:18:50;6.90;99.90
59148;DHT22;44930;52.878;6.168;2023-12-20T13:28:34;6.90;99.90
59148;DHT22;44930;52.878;6.168;2023-12-20T13:33:26;7.00;99.90
59148;DHT22;44930;52.878;6.168;2023-12-20T13:35:51;6.80;99.90
59148;DHT22;44930;52.878;6.168;2023-12-20T13:38:17;6.90;99.90
59148;DHT22;44930;52.878;6.168;2023-12-20T13:40:43;7.10;99.90
59148;DHT22;44930;52.878;6.168;2023-12-20T13:43:09;7.10;99.90
59148;DHT22;44930;52.878;6.168;2023-12-20T13:48:03;6.90;99.90
59148;DHT22;44930;52.878;6.168;2023-12-20T13:52:55;7.00;99.90
59148;DHT22;44930;52.878;6.168;2023-12-20T13:55:21;7.00;99.90
59148;DHT22;44930;52.878;6.168;2023-12-20T13:57:50;6.90;99.90
59148;DHT22;44930;52.878;6.168;2023-12-20T14:00:16;7.20;99.90
59148;DHT22;44930;52.878;6.168;2023-12-20T14:02:42;7.00;99.90
59148;DHT22;44930;52.878;6.168;2023-12-20T14:05:09;7.10;99.90
59148;DHT22;44930;52.878;6.168;2023-12-20T14:07:35;7.00;99.90
59148;DHT22;44930;52.878;6.168;2023-12-20T14:10:03;6.90;99.90
59148;DHT22;44930;52.878;6.168;2023-12-20T14:12:28;7.00;99.90
59148;DHT22;44930;52.878;6.168;2023-12-20T14:14:54;6.90;99.90
59148;DHT22;44930;52.878;6.168;2023-12-20T14:17:21;6.70;99.90
59148;DHT22;44930;52.878;6.168;2023-12-20T14:19:47;6.90;99.90
59148;DHT22;44930;52.878;6.168;2023-12-20T14:22:12;6.90;99.90
59148;DHT22;44930;52.878;6.168;2023-12-20T14:24:42;6.80;99.90
59148;DHT22;44930;52.878;6.168;2023-12-20T14:27:08;6.90;99.90
59148;DHT22;44930;52.878;6.168;2023-12-20T14:29:35;6.80;99.90
59148;DHT22;44930;52.878;6.168;2023-12-20T14:32:00;6.90;99.90
59148;DHT22;44930;52.878;6.168;2023-12-20T14:34:29;6.90;99.90
59148;DHT22;44930;52.878;6.168;2023-12-20T14:36:54;6.90;99.90
59148;DHT22;44930;52.878;6.168;2023-12-20T14:39:21;7.00;99.90
59148;DHT22;44930;52.878;6.168;2023-12-20T14:41:46;7.00;99.90
59148;DHT22;44930;52.878;6.168;2023-12-20T14:44:12;7.10;99.90
59148;DHT22;44930;52.878;6.168;2023-12-20T14:46:37;7.30;99.90
59148;DHT22;44930;52.878;6.168;2023-12-20T14:49:04;7.30;99.90
59148;DHT22;44930;52.878;6.168;2023-12-20T14:51:30;7.40;99.90
59148;DHT22;44930;52.878;6.168;2023-12-20T14:53:55;7.40;99.90
59148;DHT22;44930;52.878;6.168;2023-12-20T14:58:49;7.70;99.90
59148;DHT22;44930;52.878;6.168;2023-12-20T15:01:14;7.70;99.90
59148;DHT22;44930;52.878;6.168;2023-12-20T15:03:40;7.60;99.90
59148;DHT22;44930;52.878;6.168;2023-12-20T15:06:06;7.70;99.90
59148;DHT22;44930;52.878;6.168;2023-12-20T15:08:32;7.80;99.90
59148;DHT22;44930;52.878;6.168;2023-12-20T15:10:58;7.80;99.90
59148;DHT22;44930;52.878;6.168;2023-12-20T15:13:24;8.00;99.90
59148;DHT22;44930;52.878;6.168;2023-12-20T15:20:42;8.00;99.90
59148;DHT22;44930;52.878;6.168;2023-12-20T15:23:09;8.00;99.90
59148;DHT22;44930;52.878;6.168;2023-12-20T15:28:01;8.10;99.90
59148;DHT22;44930;52.878;6.168;2023-12-20T15:30:28;7.90;99.90
59148;DHT22;44930;52.878;6.168;2023-12-20T15:32:55;8.00;99.90
59148;DHT22;44930;52.878;6.168;2023-12-20T15:35:21;8.00;99.90
59148;DHT22;44930;52.878;6.168;2023-12-20T15:40:13;7.90;99.90
59148;DHT22;44930;52.878;6.168;2023-12-20T15:42:39;7.70;99.90
59148;DHT22;44930;52.878;6.168;2023-12-20T15:45:06;8.00;99.90
59148;DHT22;44930;52.878;6.168;2023-12-20T15:47:36;7.90;99.90
59148;DHT22;44930;52.878;6.168;2023-12-20T15:50:02;8.00;99.90
59148;DHT22;44930;52.878;6.168;2023-12-20T15:52:28;7.90;99.90
59148;DHT22;44930;52.878;6.168;2023-12-20T15:54:54;7.70;99.90
59148;DHT22;44930;52.878;6.168;2023-12-20T15:57:20;7.90;99.90
59148;DHT22;44930;52.878;6.168;2023-12-20T16:02:11;7.80;99.90
59148;DHT22;44930;52.878;6.168;2023-12-20T16:04:37;7.90;99.90
59148;DHT22;44930;52.878;6.168;2023-12-20T16:07:02;7.80;99.90
59148;DHT22;44930;52.878;6.168;2023-12-20T16:11:54;7.70;99.90
59148;DHT22;44930;52.878;6.168;2023-12-20T16:16:47;7.80;99.90
59148;DHT22;44930;52.878;6.168;2023-12-20T16:24:05;7.80;99.90
59148;DHT22;44930;52.878;6.168;2023-12-20T16:26:31;7.70;99.90
59148;DHT22;44930;52.878;6.168;2023-12-20T16:28:56;7.90;99.90
59148;DHT22;44930;52.878;6.168;2023-12-20T16:31:22;7.70;99.90
59148;DHT22;44930;52.878;6.168;2023-12-20T16:33:47;7.80;99.90
59148;DHT22;44930;52.878;6.168;2023-12-20T16:36:13;7.80;99.90
59148;DHT22;44930;52.878;6.168;2023-12-20T16:38:39;7.70;99.90
59148;DHT22;44930;52.878;6.168;2023-12-20T16:41:04;7.70;99.90
59148;DHT22;44930;52.878;6.168;2023-12-20T16:50:49;7.90;99.90
59148;DHT22;44930;52.878;6.168;2023-12-20T16:53:14;7.90;99.90
59148;DHT22;44930;52.878;6.168;2023-12-20T16:55:41;7.90;99.90
59148;DHT22;44930;52.878;6.168;2023-12-20T16:58:12;7.90;99.90
59148;DHT22;44930;52.878;6.168;2023-12-20T17:00:38;7.90;99.90
59148;DHT22;44930;52.878;6.168;2023-12-20T17:03:06;7.90;99.90
59148;DHT22;44930;52.878;6.168;2023-12-20T17:05:31;7.80;99.90
59148;DHT22;44930;52.878;6.168;2023-12-20T17:15:15;8.20;99.90
59148;DHT22;44930;52.878;6.168;2023-12-20T17:24:59;8.10;99.90
59148;DHT22;44930;52.878;6.168;2023-12-20T17:29:51;8.10;99.90
59148;DHT22;44930;52.878;6.168;2023-12-20T17:32:17;8.10;99.90
59148;DHT22;44930;52.878;6.168;2023-12-20T17:34:42;8.00;99.90
59148;DHT22;44930;52.878;6.168;2023-12-20T17:37:08;8.10;99.90
59148;DHT22;44930;52.878;6.168;2023-12-20T17:39:33;8.10;99.90
59148;DHT22;44930;52.878;6.168;2023-12-20T17:41:59;8.10;99.90
59148;DHT22;44930;52.878;6.168;2023-12-20T17:49:17;8.20;99.90
59148;DHT22;44930;52.878;6.168;2023-12-20T17:51:46;8.20;99.90
59148;DHT22;44930;52.878;6.168;2023-12-20T17:54:12;8.10;99.90
59148;DHT22;44930;52.878;6.168;2023-12-20T17:56:38;8.20;99.90
59148;DHT22;44930;52.878;6.168;2023-12-20T17:59:03;8.30;99.90
59148;DHT22;44930;52.878;6.168;2023-12-20T18:01:29;8.10;99.90
59148;DHT22;44930;52.878;6.168;2023-12-20T18:06:20;8.30;99.90
59148;DHT22;44930;52.878;6.168;2023-12-20T18:08:46;8.30;99.90
59148;DHT22;44930;52.878;6.168;2023-12-20T18:11:12;8.30;99.90
59148;DHT22;44930;52.878;6.168;2023-12-20T18:13:37;8.00;99.90
59148;DHT22;44930;52.878;6.168;2023-12-20T18:16:03;8.30;99.90
59148;DHT22;44930;52.878;6.168;2023-12-20T18:18:34;8.40;99.90
59148;DHT22;44930;52.878;6.168;2023-12-20T18:21:00;8.40;99.90
59148;DHT22;44930;52.878;6.168;2023-12-20T18:23:25;8.40;99.90
59148;DHT22;44930;52.878;6.168;2023-12-20T18:25:51;8.40;99.90
59148;DHT22;44930;52.878;6.168;2023-12-20T18:28:20;8.50;99.90
59148;DHT22;44930;52.878;6.168;2023-12-20T18:30:46;8.50;99.90
59148;DHT22;44930;52.878;6.168;2023-12-20T18:33:12;8.50;99.90
59148;DHT22;44930;52.878;6.168;2023-12-20T18:38:05;8.60;99.90
59148;DHT22;44930;52.878;6.168;2023-12-20T18:40:31;8.50;99.90
59148;DHT22;44930;52.878;6.168;2023-12-20T18:42:56;8.70;99.90
59148;DHT22;44930;52.878;6.168;2023-12-20T18:45:23;8.60;99.90
59148;DHT22;44930;52.878;6.168;2023-12-20T18:47:49;8.60;99.90
59148;DHT22;44930;52.878;6.168;2023-12-20T18:55:07;8.60;99.90
59148;DHT22;44930;52.878;6.168;2023-12-20T18:57:32;8.60;99.90
59148;DHT22;44930;52.878;6.168;2023-12-20T19:02:24;8.70;99.90
59148;DHT22;44930;52.878;6.168;2023-12-20T19:04:50;8.90;99.90
59148;DHT22;44930;52.878;6.168;2023-12-20T19:07:15;8.70;99.90
59148;DHT22;44930;52.878;6.168;2023-12-20T19:09:41;8.70;99.90
59148;DHT22;44930;52.878;6.168;2023-12-20T19:12:07;8.90;99.90
59148;DHT22;44930;52.878;6.168;2023-12-20T19:16:59;8.80;99.90
59148;DHT22;44930;52.878;6.168;2023-12-20T19:19:26;8.90;99.90
59148;DHT22;44930;52.878;6.168;2023-12-20T19:26:46;8.70;99.90
59148;DHT22;44930;52.878;6.168;2023-12-20T19:29:12;9.00;99.90
59148;DHT22;44930;52.878;6.168;2023-12-20T19:34:03;8.90;99.90
59148;DHT22;44930;52.878;6.168;2023-12-20T19:36:29;9.00;99.90
59148;DHT22;44930;52.878;6.168;2023-12-20T19:38:54;9.00;99.90
59148;DHT22;44930;52.878;6.168;2023-12-20T19:41:20;9.00;99.90
59148;DHT22;44930;52.878;6.168;2023-12-20T19:46:13;9.30;99.90
59148;DHT22;44930;52.878;6.168;2023-12-20T19:53:31;9.30;99.90
59148;DHT22;44930;52.878;6.168;2023-12-20T19:55:56;9.10;99.90
59148;DHT22;44930;52.878;6.168;2023-12-20T19:58:22;9.10;99.90
59148;DHT22;44930;52.878;6.168;2023-12-20T20:00:48;9.20;99.90
59148;DHT22;44930;52.878;6.168;2023-12-20T20:03:13;9.20;99.90
59148;DHT22;44930;52.878;6.168;2023-12-20T20:08:05;9.30;99.90
59148;DHT22;44930;52.878;6.168;2023-12-20T20:10:31;9.20;99.90
59148;DHT22;44930;52.878;6.168;2023-12-20T20:12:57;9.20;99.90
59148;DHT22;44930;52.878;6.168;2023-12-20T20:15:22;9.30;99.90
59148;DHT22;44930;52.878;6.168;2023-12-20T20:17:48;9.10;99.90
59148;DHT22;44930;52.878;6.168;2023-12-20T20:22:39;9.30;99.90
59148;DHT22;44930;52.878;6.168;2023-12-20T20:25:06;9.30;99.90
59148;DHT22;44930;52.878;6.168;2023-12-20T20:27:32;9.30;99.90
59148;DHT22;44930;52.878;6.168;2023-12-20T20:29:57;9.30;99.90
59148;DHT22;44930;52.878;6.168;2023-12-20T20:32:23;9.30;99.90
59148;DHT22;44930;52.878;6.168;2023-12-20T20:37:15;9.30;99.90
59148;DHT22;44930;52.878;6.168;2023-12-20T20:39:42;9.30;99.90
59148;DHT22;44930;52.878;6.168;2023-12-20T20:44:33;9.30;99.90
59148;DHT22;44930;52.878;6.168;2023-12-20T20:46:59;9.40;99.90
59148;DHT22;44930;52.878;6.168;2023-12-20T20:49:25;9.20;99.90
59148;DHT22;44930;52.878;6.168;2023-12-20T20:51:51;9.30;99.90
59148;DHT22;44930;52.878;6.168;2023-12-20T20:54:18;9.30;99.90
59148;DHT22;44930;52.878;6.168;2023-12-20T20:59:10;9.20;99.90
59148;DHT22;44930;52.878;6.168;2023-12-20T21:01:36;9.30;99.90
59148;DHT22;44930;52.878;6.168;2023-12-20T21:04:02;9.30;99.90
59148;DHT22;44930;52.878;6.168;2023-12-20T21:06:28;9.20;99.90
59148;DHT22;44930;52.878;6.168;2023-12-20T21:11:21;9.50;99.90
59148;DHT22;44930;52.878;6.168;2023-12-20T21:13:47;9.30;99.90
59148;DHT22;44930;52.878;6.168;2023-12-20T21:21:12;9.30;99.90
59148;DHT22;44930;52.878;6.168;2023-12-20T21:23:38;9.50;99.90
59148;DHT22;44930;52.878;6.168;2023-12-20T21:26:04;9.50;99.90
59148;DHT22;44930;52.878;6.168;2023-12-20T21:28:34;9.60;99.90
59148;DHT22;44930;52.878;6.168;2023-12-20T21:33:27;9.40;99.90
59148;DHT22;44930;52.878;6.168;2023-12-20T21:35:53;9.40;99.90
59148;DHT22;44930;52.878;6.168;2023-12-20T21:38:19;9.60;99.90
59148;DHT22;44930;52.878;6.168;2023-12-20T21:40:45;9.50;99.90
59148;DHT22;44930;52.878;6.168;2023-12-20T21:45:37;9.40;99.90
59148;DHT22;44930;52.878;6.168;2023-12-20T21:55:23;9.40;99.90
59148;DHT22;44930;52.878;6.168;2023-12-20T21:57:48;9.60;99.90
59148;DHT22;44930;52.878;6.168;2023-12-20T22:02:40;9.60;99.90
59148;DHT22;44930;52.878;6.168;2023-12-20T22:05:06;9.60;99.90
59148;DHT22;44930;52.878;6.168;2023-12-20T22:07:32;9.60;99.90